Terminal Aerodrome Forecast
Issued by NWS Greer, SC

Home | Current Version | Previous Version | Text Only | Print | Product List | Glossary On
Versions: 1 2 3 4 5 6 7 8 9 10 11 12 13 14 15 16 17 18 19 20 21 22 23
000
FTUS42 KGSP 291733
TAFAVL
TAF
KAVL 291733Z 2918/3018 04006KT P6SM BKN150
     FM300100 VRB02KT P6SM SCT150
     FM300900 00000KT 3SM BR FEW200
      TEMPO 3009/3013 3/4SM BR SCT005
     FM301300 VRB02KT P6SM SCT250=

USA.gov is the U.S. government's official web portal to all federal, state and local government web resources and services.